sensor_id;sensor_type;location;lat;lon;timestamp;pressure;altitude;pressure_sealevel;temperature;humidity
13348;BME280;6743;49.934;9.138;2023-06-14T00:00:20;100028.16;;;20.07;55.42
13348;BME280;6743;49.934;9.138;2023-06-14T00:02:47;100027.00;;;20.03;54.65
13348;BME280;6743;49.934;9.138;2023-06-14T00:05:13;100031.44;;;19.97;56.09
13348;BME280;6743;49.934;9.138;2023-06-14T00:07:41;100029.41;;;19.93;55.70
13348;BME280;6743;49.934;9.138;2023-06-14T00:10:09;100018.03;;;19.79;54.76
13348;BME280;6743;49.934;9.138;2023-06-14T00:12:36;100026.72;;;19.81;55.88
13348;BME280;6743;49.934;9.138;2023-06-14T00:15:02;100032.09;;;19.81;54.68
13348;BME280;6743;49.934;9.138;2023-06-14T00:17:31;100031.16;;;19.76;55.41
13348;BME280;6743;49.934;9.138;2023-06-14T00:19:57;100031.81;;;19.71;56.52
13348;BME280;6743;49.934;9.138;2023-06-14T00:22:27;100028.88;;;19.61;56.50
13348;BME280;6743;49.934;9.138;2023-06-14T00:24:57;100028.16;;;19.54;56.56
13348;BME280;6743;49.934;9.138;2023-06-14T00:27:26;100018.72;;;19.45;58.96
13348;BME280;6743;49.934;9.138;2023-06-14T00:29:52;100044.66;;;19.39;62.78
13348;BME280;6743;49.934;9.138;2023-06-14T00:32:18;100037.13;;;19.29;64.03
13348;BME280;6743;49.934;9.138;2023-06-14T00:34:44;100034.31;;;19.24;65.47
13348;BME280;6743;49.934;9.138;2023-06-14T00:37:10;100043.28;;;19.18;67.60
13348;BME280;6743;49.934;9.138;2023-06-14T00:39:36;100039.63;;;19.13;69.30
13348;BME280;6743;49.934;9.138;2023-06-14T00:42:03;100036.13;;;19.12;70.78
13348;BME280;6743;49.934;9.138;2023-06-14T00:44:30;100046.97;;;19.06;72.97
13348;BME280;6743;49.934;9.138;2023-06-14T00:46:57;100033.28;;;18.89;73.51
13348;BME280;6743;49.934;9.138;2023-06-14T00:49:23;100038.00;;;18.94;72.13
13348;BME280;6743;49.934;9.138;2023-06-14T00:51:50;100033.87;;;18.91;68.39
13348;BME280;6743;49.934;9.138;2023-06-14T00:54:16;100039.34;;;18.84;69.85
13348;BME280;6743;49.934;9.138;2023-06-14T00:56:43;100042.84;;;18.85;65.93
13348;BME280;6743;49.934;9.138;2023-06-14T00:59:10;100041.88;;;18.79;65.09
13348;BME280;6743;49.934;9.138;2023-06-14T01:01:36;100044.31;;;18.81;63.48
13348;BME280;6743;49.934;9.138;2023-06-14T01:04:04;100039.63;;;18.76;64.88
13348;BME280;6743;49.934;9.138;2023-06-14T01:06:33;100035.53;;;18.74;66.59
13348;BME280;6743;49.934;9.138;2023-06-14T01:09:11;100039.56;;;18.65;64.53
13348;BME280;6743;49.934;9.138;2023-06-14T01:11:47;100038.50;;;18.66;64.16
13348;BME280;6743;49.934;9.138;2023-06-14T01:14:16;100037.22;;;18.68;63.26
13348;BME280;6743;49.934;9.138;2023-06-14T01:16:43;100034.31;;;18.70;62.83
13348;BME280;6743;49.934;9.138;2023-06-14T01:19:12;100036.13;;;18.58;64.21
13348;BME280;6743;49.934;9.138;2023-06-14T01:21:39;100042.31;;;18.58;63.59
13348;BME280;6743;49.934;9.138;2023-06-14T01:24:08;100041.31;;;18.53;63.83
13348;BME280;6743;49.934;9.138;2023-06-14T01:26:34;100043.59;;;18.49;63.71
13348;BME280;6743;49.934;9.138;2023-06-14T01:29:03;100036.44;;;18.43;64.63
13348;BME280;6743;49.934;9.138;2023-06-14T01:31:30;100024.56;;;18.32;64.95
13348;BME280;6743;49.934;9.138;2023-06-14T01:34:05;100016.00;;;18.17;66.22
13348;BME280;6743;49.934;9.138;2023-06-14T01:36:31;100029.38;;;18.24;69.68
13348;BME280;6743;49.934;9.138;2023-06-14T01:38:59;100022.84;;;18.13;71.04
13348;BME280;6743;49.934;9.138;2023-06-14T01:41:25;100023.09;;;18.12;70.84
13348;BME280;6743;49.934;9.138;2023-06-14T01:43:52;100021.25;;;18.05;71.32
13348;BME280;6743;49.934;9.138;2023-06-14T01:46:20;100026.47;;;18.00;69.80
13348;BME280;6743;49.934;9.138;2023-06-14T01:48:46;100030.19;;;17.99;68.23
13348;BME280;6743;49.934;9.138;2023-06-14T01:51:12;100032.09;;;17.92;68.99
13348;BME280;6743;49.934;9.138;2023-06-14T01:53:38;100030.69;;;17.90;70.77
13348;BME280;6743;49.934;9.138;2023-06-14T01:56:04;100027.75;;;17.91;72.87
13348;BME280;6743;49.934;9.138;2023-06-14T01:58:31;100022.22;;;17.86;77.83
13348;BME280;6743;49.934;9.138;2023-06-14T02:00:58;100022.50;;;17.78;81.84
13348;BME280;6743;49.934;9.138;2023-06-14T02:03:26;100034.50;;;17.76;89.12
13348;BME280;6743;49.934;9.138;2023-06-14T02:05:53;100029.19;;;17.69;96.23
13348;BME280;6743;49.934;9.138;2023-06-14T02:08:20;100034.59;;;17.62;100.00
13348;BME280;6743;49.934;9.138;2023-06-14T02:10:46;100027.19;;;17.51;100.00
13348;BME280;6743;49.934;9.138;2023-06-14T02:13:12;100032.34;;;17.53;100.00
13348;BME280;6743;49.934;9.138;2023-06-14T02:15:39;100031.13;;;17.49;100.00
13348;BME280;6743;49.934;9.138;2023-06-14T02:18:05;100031.34;;;17.47;100.00
13348;BME280;6743;49.934;9.138;2023-06-14T02:20:34;100040.41;;;17.46;100.00
13348;BME280;6743;49.934;9.138;2023-06-14T02:23:00;100038.41;;;17.42;100.00
13348;BME280;6743;49.934;9.138;2023-06-14T02:25:26;100036.53;;;17.36;94.89
13348;BME280;6743;49.934;9.138;2023-06-14T02:27:53;100045.19;;;17.38;91.18
13348;BME280;6743;49.934;9.138;2023-06-14T02:30:22;100038.44;;;17.35;86.65
13348;BME280;6743;49.934;9.138;2023-06-14T02:32:49;100044.37;;;17.37;87.17
13348;BME280;6743;49.934;9.138;2023-06-14T02:35:16;100048.34;;;17.28;85.90
13348;BME280;6743;49.934;9.138;2023-06-14T02:37:42;100054.97;;;17.25;86.81
13348;BME280;6743;49.934;9.138;2023-06-14T02:40:09;100050.63;;;17.24;85.56
13348;BME280;6743;49.934;9.138;2023-06-14T02:42:35;100051.88;;;17.22;86.99
13348;BME280;6743;49.934;9.138;2023-06-14T02:45:01;100052.94;;;17.21;85.33
13348;BME280;6743;49.934;9.138;2023-06-14T02:47:27;100048.84;;;17.12;86.92
13348;BME280;6743;49.934;9.138;2023-06-14T02:49:54;100057.53;;;17.07;89.54
13348;BME280;6743;49.934;9.138;2023-06-14T02:52:20;100061.00;;;17.01;92.73
13348;BME280;6743;49.934;9.138;2023-06-14T02:54:50;100046.44;;;16.90;92.99
13348;BME280;6743;49.934;9.138;2023-06-14T02:57:16;100051.19;;;16.82;95.64
13348;BME280;6743;49.934;9.138;2023-06-14T02:59:42;100055.69;;;16.88;95.45
13348;BME280;6743;49.934;9.138;2023-06-14T03:02:08;100052.84;;;16.83;93.95
13348;BME280;6743;49.934;9.138;2023-06-14T03:04:34;100051.19;;;16.75;91.65
13348;BME280;6743;49.934;9.138;2023-06-14T03:07:04;100065.41;;;16.76;92.33
13348;BME280;6743;49.934;9.138;2023-06-14T03:09:35;100065.41;;;16.82;91.43
13348;BME280;6743;49.934;9.138;2023-06-14T03:12:02;100059.84;;;16.77;91.36
13348;BME280;6743;49.934;9.138;2023-06-14T03:14:28;100068.09;;;16.82;90.50
13348;BME280;6743;49.934;9.138;2023-06-14T03:16:54;100075.50;;;16.74;91.52
13348;BME280;6743;49.934;9.138;2023-06-14T03:19:22;100076.78;;;16.71;92.25
13348;BME280;6743;49.934;9.138;2023-06-14T03:21:48;100076.34;;;16.68;92.01
13348;BME280;6743;49.934;9.138;2023-06-14T03:24:15;100079.44;;;16.71;91.82
13348;BME280;6743;49.934;9.138;2023-06-14T03:26:42;100082.53;;;16.62;93.72
13348;BME280;6743;49.934;9.138;2023-06-14T03:29:09;100079.84;;;16.68;92.10
13348;BME280;6743;49.934;9.138;2023-06-14T03:31:35;100082.16;;;16.65;92.01
13348;BME280;6743;49.934;9.138;2023-06-14T03:34:01;100084.81;;;16.65;91.07
13348;BME280;6743;49.934;9.138;2023-06-14T03:36:27;100085.22;;;16.62;91.21
13348;BME280;6743;49.934;9.138;2023-06-14T03:38:53;100089.75;;;16.61;92.18
13348;BME280;6743;49.934;9.138;2023-06-14T03:41:20;100091.37;;;16.55;92.59
13348;BME280;6743;49.934;9.138;2023-06-14T03:43:46;100090.56;;;16.55;91.44
13348;BME280;6743;49.934;9.138;2023-06-14T03:46:12;100086.22;;;16.47;90.58
13348;BME280;6743;49.934;9.138;2023-06-14T03:48:38;100091.78;;;16.46;91.19
13348;BME280;6743;49.934;9.138;2023-06-14T03:51:04;100097.56;;;16.43;92.26
13348;BME280;6743;49.934;9.138;2023-06-14T03:53:30;100101.28;;;16.42;93.15
13348;BME280;6743;49.934;9.138;2023-06-14T03:55:56;100107.47;;;16.42;94.33
13348;BME280;6743;49.934;9.138;2023-06-14T03:58:23;100108.09;;;16.38;96.52
13348;BME280;6743;49.934;9.138;2023-06-14T04:00:49;100108.69;;;16.33;100.00
13348;BME280;6743;49.934;9.138;2023-06-14T04:03:15;100115.69;;;16.34;100.00
13348;BME280;6743;49.934;9.138;2023-06-14T04:05:42;100123.53;;;16.29;100.00
13348;BME280;6743;49.934;9.138;2023-06-14T04:08:08;100115.88;;;16.26;100.00
13348;BME280;6743;49.934;9.138;2023-06-14T04:10:35;100122.06;;;16.27;100.00
13348;BME280;6743;49.934;9.138;2023-06-14T04:13:00;100116.91;;;16.25;100.00
13348;BME280;6743;49.934;9.138;2023-06-14T04:15:27;100122.06;;;16.27;100.00
13348;BME280;6743;49.934;9.138;2023-06-14T04:17:53;100125.78;;;16.32;100.00
13348;BME280;6743;49.934;9.138;2023-06-14T04:20:23;100131.56;;;16.29;100.00
13348;BME280;6743;49.934;9.138;2023-06-14T04:22:50;100137.72;;;16.36;100.00
13348;BME280;6743;49.934;9.138;2023-06-14T04:25:16;100144.12;;;16.35;100.00
13348;BME280;6743;49.934;9.138;2023-06-14T04:27:42;100135.69;;;16.32;100.00
13348;BME280;6743;49.934;9.138;2023-06-14T04:30:09;100135.44;;;16.33;100.00
13348;BME280;6743;49.934;9.138;2023-06-14T04:32:36;100139.78;;;16.34;100.00
13348;BME280;6743;49.934;9.138;2023-06-14T04:35:05;100145.56;;;16.31;100.00
13348;BME280;6743;49.934;9.138;2023-06-14T04:37:31;100149.47;;;16.29;100.00
13348;BME280;6743;49.934;9.138;2023-06-14T04:39:58;100147.41;;;16.31;100.00
13348;BME280;6743;49.934;9.138;2023-06-14T04:42:25;100147.19;;;16.32;100.00
13348;BME280;6743;49.934;9.138;2023-06-14T04:44:55;100151.31;;;16.35;100.00
13348;BME280;6743;49.934;9.138;2023-06-14T04:47:21;100152.53;;;16.39;100.00
13348;BME280;6743;49.934;9.138;2023-06-14T04:49:47;100155.22;;;16.39;100.00
13348;BME280;6743;49.934;9.138;2023-06-14T04:52:13;100152.34;;;16.40;100.00
13348;BME280;6743;49.934;9.138;2023-06-14T04:54:40;100156.06;;;16.46;100.00
13348;BME280;6743;49.934;9.138;2023-06-14T04:57:08;100157.12;;;16.51;100.00
13348;BME280;6743;49.934;9.138;2023-06-14T04:59:39;100155.66;;;16.55;100.00
13348;BME280;6743;49.934;9.138;2023-06-14T05:02:05;100153.22;;;16.61;100.00
13348;BME280;6743;49.934;9.138;2023-06-14T05:04:32;100161.47;;;16.66;100.00
13348;BME280;6743;49.934;9.138;2023-06-14T05:06:59;100165.19;;;16.71;100.00
13348;BME280;6743;49.934;9.138;2023-06-14T05:09:26;100150.94;;;16.77;100.00
13348;BME280;6743;49.934;9.138;2023-06-14T05:11:52;100155.47;;;16.83;100.00
13348;BME280;6743;49.934;9.138;2023-06-14T05:14:18;100159.16;;;16.89;100.00
13348;BME280;6743;49.934;9.138;2023-06-14T05:16:44;100156.91;;;16.99;100.00
13348;BME280;6743;49.934;9.138;2023-06-14T05:19:10;100162.87;;;17.08;100.00
13348;BME280;6743;49.934;9.138;2023-06-14T05:21:36;100158.50;;;17.20;100.00
13348;BME280;6743;49.934;9.138;2023-06-14T05:24:06;100159.91;;;17.29;100.00
13348;BME280;6743;49.934;9.138;2023-06-14T05:26:32;100156.38;;;17.42;100.00
13348;BME280;6743;49.934;9.138;2023-06-14T05:28:59;100160.03;;;17.60;100.00
13348;BME280;6743;49.934;9.138;2023-06-14T05:31:26;100167.84;;;17.75;100.00
13348;BME280;6743;49.934;9.138;2023-06-14T05:33:54;100168.38;;;17.90;100.00
13348;BME280;6743;49.934;9.138;2023-06-14T05:36:23;100162.69;;;18.05;99.19
13348;BME280;6743;49.934;9.138;2023-06-14T05:38:49;100161.03;;;18.10;96.78
13348;BME280;6743;49.934;9.138;2023-06-14T05:41:17;100171.88;;;18.29;98.52
13348;BME280;6743;49.934;9.138;2023-06-14T05:43:43;100168.25;;;18.41;96.37
13348;BME280;6743;49.934;9.138;2023-06-14T05:46:09;100175.22;;;18.49;93.29
13348;BME280;6743;49.934;9.138;2023-06-14T05:48:35;100174.78;;;18.59;93.30
13348;BME280;6743;49.934;9.138;2023-06-14T05:51:01;100178.00;;;18.67;93.68
13348;BME280;6743;49.934;9.138;2023-06-14T05:53:27;100182.94;;;18.70;89.33
13348;BME280;6743;49.934;9.138;2023-06-14T05:55:53;100187.00;;;18.79;91.90
13348;BME280;6743;49.934;9.138;2023-06-14T05:58:20;100185.97;;;18.80;88.78
13348;BME280;6743;49.934;9.138;2023-06-14T06:00:48;100199.16;;;18.82;87.79
13348;BME280;6743;49.934;9.138;2023-06-14T06:03:14;100197.91;;;18.84;88.42
13348;BME280;6743;49.934;9.138;2023-06-14T06:05:40;100196.06;;;18.85;88.14
13348;BME280;6743;49.934;9.138;2023-06-14T06:08:06;100199.34;;;18.87;86.76
13348;BME280;6743;49.934;9.138;2023-06-14T06:10:32;100198.91;;;18.90;86.25
13348;BME280;6743;49.934;9.138;2023-06-14T06:12:58;100176.41;;;18.84;87.98
13348;BME280;6743;49.934;9.138;2023-06-14T06:15:24;100206.69;;;18.98;88.58
13348;BME280;6743;49.934;9.138;2023-06-14T06:17:50;100198.62;;;18.98;86.81
13348;BME280;6743;49.934;9.138;2023-06-14T06:20:16;100201.31;;;18.98;87.78
13348;BME280;6743;49.934;9.138;2023-06-14T06:22:42;100199.00;;;19.02;88.04
13348;BME280;6743;49.934;9.138;2023-06-14T06:25:09;100201.47;;;19.03;86.21
13348;BME280;6743;49.934;9.138;2023-06-14T06:27:35;100211.41;;;19.03;85.24
13348;BME280;6743;49.934;9.138;2023-06-14T06:30:03;100166.09;;;18.81;85.60
13348;BME280;6743;49.934;9.138;2023-06-14T06:32:30;100201.25;;;19.05;89.43
13348;BME280;6743;49.934;9.138;2023-06-14T06:34:56;100212.41;;;19.08;85.67
13348;BME280;6743;49.934;9.138;2023-06-14T06:37:22;100218.50;;;19.15;85.70
13348;BME280;6743;49.934;9.138;2023-06-14T06:39:48;100215.12;;;19.26;85.04
13348;BME280;6743;49.934;9.138;2023-06-14T06:42:14;100220.03;;;19.29;83.53
13348;BME280;6743;49.934;9.138;2023-06-14T06:44:40;100223.72;;;19.35;82.81
13348;BME280;6743;49.934;9.138;2023-06-14T06:47:06;100224.09;;;19.39;83.54
13348;BME280;6743;49.934;9.138;2023-06-14T06:49:32;100232.75;;;19.41;80.91
13348;BME280;6743;49.934;9.138;2023-06-14T06:51:59;100233.56;;;19.48;84.32
13348;BME280;6743;49.934;9.138;2023-06-14T06:54:25;100225.00;;;19.51;81.62
13348;BME280;6743;49.934;9.138;2023-06-14T06:56:51;100238.19;;;19.59;83.13
13348;BME280;6743;49.934;9.138;2023-06-14T06:59:19;100232.94;;;19.64;80.42
13348;BME280;6743;49.934;9.138;2023-06-14T07:01:46;100229.75;;;19.55;82.69
13348;BME280;6743;49.934;9.138;2023-06-14T07:04:12;100238.50;;;19.69;80.43
13348;BME280;6743;49.934;9.138;2023-06-14T07:06:39;100233.47;;;19.73;80.03
13348;BME280;6743;49.934;9.138;2023-06-14T07:09:05;100238.19;;;19.77;78.94
13348;BME280;6743;49.934;9.138;2023-06-14T07:11:37;100236.69;;;19.81;81.89
13348;BME280;6743;49.934;9.138;2023-06-14T07:14:03;100237.03;;;19.85;79.33
13348;BME280;6743;49.934;9.138;2023-06-14T07:16:29;100233.09;;;19.87;79.21
13348;BME280;6743;49.934;9.138;2023-06-14T07:18:55;100241.09;;;19.94;79.02
13348;BME280;6743;49.934;9.138;2023-06-14T07:21:21;100237.69;;;19.98;78.88
13348;BME280;6743;49.934;9.138;2023-06-14T07:23:48;100240.69;;;20.09;82.56
13348;BME280;6743;49.934;9.138;2023-06-14T07:26:13;100239.78;;;20.15;79.47
13348;BME280;6743;49.934;9.138;2023-06-14T07:28:39;100238.50;;;20.17;77.53
13348;BME280;6743;49.934;9.138;2023-06-14T07:31:10;100235.94;;;20.22;78.04
13348;BME280;6743;49.934;9.138;2023-06-14T07:33:36;100237.37;;;20.25;76.00
13348;BME280;6743;49.934;9.138;2023-06-14T07:36:02;100240.91;;;20.25;75.85
13348;BME280;6743;49.934;9.138;2023-06-14T07:38:29;100228.81;;;20.28;76.22
13348;BME280;6743;49.934;9.138;2023-06-14T07:40:55;100231.50;;;20.28;77.67
13348;BME280;6743;49.934;9.138;2023-06-14T07:43:21;100232.06;;;20.36;76.57
13348;BME280;6743;49.934;9.138;2023-06-14T07:45:47;100231.22;;;20.36;75.34
13348;BME280;6743;49.934;9.138;2023-06-14T07:48:13;100229.72;;;20.40;79.45
13348;BME280;6743;49.934;9.138;2023-06-14T07:50:40;100227.37;;;20.43;77.45
13348;BME280;6743;49.934;9.138;2023-06-14T07:53:06;100240.16;;;20.48;77.09
13348;BME280;6743;49.934;9.138;2023-06-14T07:55:32;100228.47;;;20.54;78.32
13348;BME280;6743;49.934;9.138;2023-06-14T07:58:02;100230.50;;;20.59;75.61
13348;BME280;6743;49.934;9.138;2023-06-14T08:00:28;100239.28;;;20.66;76.43
13348;BME280;6743;49.934;9.138;2023-06-14T08:02:54;100231.69;;;20.74;77.83
13348;BME280;6743;49.934;9.138;2023-06-14T08:05:24;100224.56;;;20.80;76.94
13348;BME280;6743;49.934;9.138;2023-06-14T08:07:50;100235.44;;;20.85;75.68
13348;BME280;6743;49.934;9.138;2023-06-14T08:10:16;100235.22;;;20.87;75.63
13348;BME280;6743;49.934;9.138;2023-06-14T08:12:42;100240.63;;;20.87;74.82
13348;BME280;6743;49.934;9.138;2023-06-14T08:15:09;100238.50;;;20.89;73.46
13348;BME280;6743;49.934;9.138;2023-06-14T08:17:35;100224.56;;;20.80;71.69
13348;BME280;6743;49.934;9.138;2023-06-14T08:20:02;100246.47;;;20.95;72.47
13348;BME280;6743;49.934;9.138;2023-06-14T08:22:30;100240.28;;;20.95;73.06
13348;BME280;6743;49.934;9.138;2023-06-14T08:24:59;100236.28;;;20.97;74.83
13348;BME280;6743;49.934;9.138;2023-06-14T08:27:25;100226.69;;;21.01;74.69
13348;BME280;6743;49.934;9.138;2023-06-14T08:29:51;100205.56;;;20.87;74.67
13348;BME280;6743;49.934;9.138;2023-06-14T08:32:17;100233.34;;;21.10;73.82
13348;BME280;6743;49.934;9.138;2023-06-14T08:34:43;100230.56;;;21.17;73.51
13348;BME280;6743;49.934;9.138;2023-06-14T08:37:09;100217.28;;;21.04;71.83
13348;BME280;6743;49.934;9.138;2023-06-14T08:39:35;100240.19;;;21.25;71.02
13348;BME280;6743;49.934;9.138;2023-06-14T08:42:02;100228.84;;;21.23;70.31
13348;BME280;6743;49.934;9.138;2023-06-14T08:44:29;100222.63;;;21.22;69.80
13348;BME280;6743;49.934;9.138;2023-06-14T08:46:55;100246.53;;;21.30;69.68
13348;BME280;6743;49.934;9.138;2023-06-14T08:49:24;100237.53;;;21.36;70.26
13348;BME280;6743;49.934;9.138;2023-06-14T08:51:57;100218.50;;;21.31;70.80
13348;BME280;6743;49.934;9.138;2023-06-14T08:54:23;100243.47;;;21.38;69.70
13348;BME280;6743;49.934;9.138;2023-06-14T08:56:52;100244.41;;;21.44;69.30
13348;BME280;6743;49.934;9.138;2023-06-14T08:59:24;100253.69;;;21.48;65.33
13348;BME280;6743;49.934;9.138;2023-06-14T09:01:51;100241.50;;;21.34;66.28
13348;BME280;6743;49.934;9.138;2023-06-14T09:04:18;100244.19;;;21.34;65.76
13348;BME280;6743;49.934;9.138;2023-06-14T09:06:45;100235.75;;;21.42;68.31
13348;BME280;6743;49.934;9.138;2023-06-14T09:09:11;100232.09;;;21.48;68.08
13348;BME280;6743;49.934;9.138;2023-06-14T09:11:37;100251.91;;;21.65;68.92
13348;BME280;6743;49.934;9.138;2023-06-14T09:14:04;100254.09;;;21.80;68.01
13348;BME280;6743;49.934;9.138;2023-06-14T09:16:32;100248.38;;;21.76;64.88
13348;BME280;6743;49.934;9.138;2023-06-14T09:18:58;100251.53;;;21.73;63.07
13348;BME280;6743;49.934;9.138;2023-06-14T09:21:24;100253.78;;;21.76;64.39
13348;BME280;6743;49.934;9.138;2023-06-14T09:23:51;100252.47;;;21.79;66.78
13348;BME280;6743;49.934;9.138;2023-06-14T09:26:19;100256.25;;;21.78;66.92
13348;BME280;6743;49.934;9.138;2023-06-14T09:28:46;100266.00;;;21.67;64.06
13348;BME280;6743;49.934;9.138;2023-06-14T09:31:13;100251.66;;;21.67;66.04
13348;BME280;6743;49.934;9.138;2023-06-14T09:33:41;100264.09;;;21.79;65.01
13348;BME280;6743;49.934;9.138;2023-06-14T09:36:11;100256.34;;;21.83;63.23
13348;BME280;6743;49.934;9.138;2023-06-14T09:38:39;100260.78;;;21.89;62.53
13348;BME280;6743;49.934;9.138;2023-06-14T09:41:06;100264.06;;;21.91;65.84
13348;BME280;6743;49.934;9.138;2023-06-14T09:43:33;100256.44;;;21.99;66.10
13348;BME280;6743;49.934;9.138;2023-06-14T09:46:00;100263.47;;;22.00;66.12
13348;BME280;6743;49.934;9.138;2023-06-14T09:48:26;100275.09;;;22.01;65.75
13348;BME280;6743;49.934;9.138;2023-06-14T09:50:55;100258.19;;;22.06;67.11
13348;BME280;6743;49.934;9.138;2023-06-14T09:53:23;100256.28;;;22.18;67.00
13348;BME280;6743;49.934;9.138;2023-06-14T09:55:52;100271.37;;;22.30;63.38
13348;BME280;6743;49.934;9.138;2023-06-14T09:58:23;100259.75;;;22.30;60.20
13348;BME280;6743;49.934;9.138;2023-06-14T10:00:52;100269.44;;;22.43;64.47
13348;BME280;6743;49.934;9.138;2023-06-14T10:03:24;100250.56;;;22.31;64.67
13348;BME280;6743;49.934;9.138;2023-06-14T10:05:51;100268.84;;;22.40;63.78
13348;BME280;6743;49.934;9.138;2023-06-14T10:08:19;100275.91;;;22.42;63.78
13348;BME280;6743;49.934;9.138;2023-06-14T10:10:49;100253.22;;;22.43;65.76
13348;BME280;6743;49.934;9.138;2023-06-14T10:13:16;100267.59;;;22.60;62.36
13348;BME280;6743;49.934;9.138;2023-06-14T10:15:51;100258.16;;;22.62;58.20
13348;BME280;6743;49.934;9.138;2023-06-14T10:18:24;100257.78;;;22.70;64.03
13348;BME280;6743;49.934;9.138;2023-06-14T10:21:01;100262.47;;;22.75;62.26
13348;BME280;6743;49.934;9.138;2023-06-14T10:23:31;100266.47;;;22.72;61.78
13348;BME280;6743;49.934;9.138;2023-06-14T10:25:58;100271.16;;;22.49;62.19
13348;BME280;6743;49.934;9.138;2023-06-14T10:28:25;100270.47;;;22.53;63.51
13348;BME280;6743;49.934;9.138;2023-06-14T10:31:08;100271.56;;;22.40;62.36
13348;BME280;6743;49.934;9.138;2023-06-14T10:33:39;100270.50;;;22.42;61.96
13348;BME280;6743;49.934;9.138;2023-06-14T10:36:25;100267.13;;;22.34;61.43
13348;BME280;6743;49.934;9.138;2023-06-14T10:39:00;100266.16;;;22.40;62.89
13348;BME280;6743;49.934;9.138;2023-06-14T10:41:27;100274.84;;;22.43;60.84
13348;BME280;6743;49.934;9.138;2023-06-14T10:44:21;100274.37;;;22.46;61.49
13348;BME280;6743;49.934;9.138;2023-06-14T10:46:59;100276.56;;;22.49;61.54
13348;BME280;6743;49.934;9.138;2023-06-14T10:49:38;100270.47;;;22.53;61.40
13348;BME280;6743;49.934;9.138;2023-06-14T10:52:08;100252.00;;;22.50;63.87
13348;BME280;6743;49.934;9.138;2023-06-14T10:54:37;100259.88;;;22.52;61.72
13348;BME280;6743;49.934;9.138;2023-06-14T10:57:06;100271.53;;;22.69;63.56
13348;BME280;6743;49.934;9.138;2023-06-14T10:59:33;100264.94;;;22.76;62.83
13348;BME280;6743;49.934;9.138;2023-06-14T11:02:30;100259.88;;;22.80;63.01
13348;BME280;6743;49.934;9.138;2023-06-14T11:05:03;100268.53;;;22.82;60.85
13348;BME280;6743;49.934;9.138;2023-06-14T11:07:42;100262.06;;;22.83;59.87
13348;BME280;6743;49.934;9.138;2023-06-14T11:10:22;100264.97;;;22.93;60.86
13348;BME280;6743;49.934;9.138;2023-06-14T11:12:54;100259.97;;;23.02;59.75
13348;BME280;6743;49.934;9.138;2023-06-14T11:15:20;100270.87;;;23.07;56.56
13348;BME280;6743;49.934;9.138;2023-06-14T11:17:53;100256.94;;;23.15;60.08
13348;BME280;6743;49.934;9.138;2023-06-14T11:20:25;100263.72;;;23.34;60.00
13348;BME280;6743;49.934;9.138;2023-06-14T11:22:52;100259.19;;;23.40;59.98
13348;BME280;6743;49.934;9.138;2023-06-14T11:25:18;100255.53;;;23.29;57.17
13348;BME280;6743;49.934;9.138;2023-06-14T11:27:44;100242.16;;;23.23;57.12
13348;BME280;6743;49.934;9.138;2023-06-14T11:30:12;100254.47;;;23.30;57.90
13348;BME280;6743;49.934;9.138;2023-06-14T11:32:38;100256.72;;;23.38;55.08
13348;BME280;6743;49.934;9.138;2023-06-14T11:35:07;100263.72;;;23.34;56.81
13348;BME280;6743;49.934;9.138;2023-06-14T11:37:36;100238.22;;;23.30;57.17
13348;BME280;6743;49.934;9.138;2023-06-14T11:40:04;100258.31;;;23.51;57.80
13348;BME280;6743;49.934;9.138;2023-06-14T11:42:35;100267.22;;;23.51;57.85
13348;BME280;6743;49.934;9.138;2023-06-14T11:45:01;100264.03;;;23.54;58.04
13348;BME280;6743;49.934;9.138;2023-06-14T11:47:31;100268.69;;;23.59;57.46
13348;BME280;6743;49.934;9.138;2023-06-14T11:49:58;100251.19;;;23.67;56.20
13348;BME280;6743;49.934;9.138;2023-06-14T11:52:25;100264.97;;;23.65;55.24
13348;BME280;6743;49.934;9.138;2023-06-14T11:54:51;100257.78;;;23.71;58.14
13348;BME280;6743;49.934;9.138;2023-06-14T11:57:18;100251.84;;;23.74;57.05
13348;BME280;6743;49.934;9.138;2023-06-14T11:59:44;100255.94;;;23.76;55.84
13348;BME280;6743;49.934;9.138;2023-06-14T12:02:13;100253.53;;;23.80;55.86
13348;BME280;6743;49.934;9.138;2023-06-14T12:04:40;100256.63;;;23.88;56.21
13348;BME280;6743;49.934;9.138;2023-06-14T12:07:10;100264.25;;;23.91;56.34
13348;BME280;6743;49.934;9.138;2023-06-14T12:09:41;100250.63;;;23.86;56.00
13348;BME280;6743;49.934;9.138;2023-06-14T12:12:09;100251.78;;;23.90;56.27
13348;BME280;6743;49.934;9.138;2023-06-14T12:14:36;100268.25;;;24.06;56.13
13348;BME280;6743;49.934;9.138;2023-06-14T12:17:06;100262.81;;;24.06;54.73
13348;BME280;6743;49.934;9.138;2023-06-14T12:19:32;100259.81;;;24.07;52.76
13348;BME280;6743;49.934;9.138;2023-06-14T12:21:59;100247.03;;;24.03;53.44
13348;BME280;6743;49.934;9.138;2023-06-14T12:24:28;100256.69;;;24.15;55.71
13348;BME280;6743;49.934;9.138;2023-06-14T12:26:57;100255.38;;;24.18;56.55
13348;BME280;6743;49.934;9.138;2023-06-14T12:29:24;100245.28;;;24.13;54.63
13348;BME280;6743;49.934;9.138;2023-06-14T12:31:51;100250.53;;;24.20;55.87
13348;BME280;6743;49.934;9.138;2023-06-14T12:34:19;100246.47;;;24.22;55.73
13348;BME280;6743;49.934;9.138;2023-06-14T12:36:46;100248.88;;;24.19;51.79
13348;BME280;6743;49.934;9.138;2023-06-14T12:39:12;100245.84;;;24.15;52.72
13348;BME280;6743;49.934;9.138;2023-06-14T12:41:38;100244.03;;;24.21;52.87
13348;BME280;6743;49.934;9.138;2023-06-14T12:44:07;100242.47;;;24.25;53.60
13348;BME280;6743;49.934;9.138;2023-06-14T12:46:33;100245.13;;;24.20;53.47
13348;BME280;6743;49.934;9.138;2023-06-14T12:49:00;100251.00;;;24.17;53.65
13348;BME280;6743;49.934;9.138;2023-06-14T12:51:26;100255.38;;;24.18;52.56
13348;BME280;6743;49.934;9.138;2023-06-14T12:53:52;100254.53;;;24.17;52.66
13348;BME280;6743;49.934;9.138;2023-06-14T12:56:18;100253.06;;;24.26;53.36
13348;BME280;6743;49.934;9.138;2023-06-14T12:58:44;100255.16;;;24.46;55.02